Aviation Digital Data Service (ADDS)

Output produced by METARs form (2313 UTC 24 May 2015)
found at http://aviationweather.gov/adds/metars/
 
KAND 241735Z 2418/2518 14007KT P6SM SCT050 BKN250 
     FM250300 10005KT P6SM SCT150 
     FM250700 10004KT P6SM BKN023 
     FM250900 08004KT P6SM BKN015 
     FM251300 10005KT P6SM BKN008 
     FM251500 13006KT P6SM BKN016